createdAt,value
2023-05-10T00:00:51.139Z,10.10
2023-05-10T00:03:20.308Z,10.10
2023-05-10T00:05:48.470Z,10.07
2023-05-10T00:08:17.033Z,10.07
2023-05-10T00:10:45.060Z,10.04
2023-05-10T00:13:13.482Z,10.02
2023-05-10T00:15:41.387Z,9.97
2023-05-10T00:18:09.646Z,9.96
2023-05-10T00:20:37.959Z,9.97
2023-05-10T00:23:06.157Z,9.95
2023-05-10T00:25:34.051Z,9.89
2023-05-10T00:28:03.434Z,9.88
2023-05-10T00:30:31.567Z,9.83
2023-05-10T00:33:02.353Z,9.80
2023-05-10T00:35:30.715Z,9.80
2023-05-10T00:37:59.151Z,9.79
2023-05-10T00:40:27.554Z,9.74
2023-05-10T00:42:55.809Z,9.72
2023-05-10T00:45:24.709Z,9.68
2023-05-10T00:47:56.428Z,9.67
2023-05-10T00:50:25.124Z,9.64
2023-05-10T00:52:53.567Z,9.63
2023-05-10T00:55:22.256Z,9.65
2023-05-10T00:57:50.579Z,9.64
2023-05-10T01:00:19.730Z,9.65
2023-05-10T01:02:48.743Z,9.62
2023-05-10T01:05:17.433Z,9.62
2023-05-10T01:07:45.692Z,9.62
2023-05-10T01:10:14.500Z,9.64
2023-05-10T01:12:45.117Z,9.65
2023-05-10T01:15:14.659Z,9.63
2023-05-10T01:17:44.428Z,9.61
2023-05-10T01:20:14.014Z,9.60
2023-05-10T01:23:00.155Z,9.61
2023-05-10T01:25:50.199Z,9.62
2023-05-10T01:28:39.833Z,9.59
2023-05-10T01:31:35.259Z,9.58
2023-05-10T01:34:27.276Z,9.52
2023-05-10T01:37:17.673Z,9.54
2023-05-10T01:39:58.443Z,9.48
2023-05-10T01:42:28.810Z,9.52
2023-05-10T01:45:16.542Z,9.60
2023-05-10T01:48:07.029Z,9.52
2023-05-10T01:50:37.361Z,9.55
2023-05-10T01:53:08.909Z,9.47
2023-05-10T01:55:48.577Z,9.46
2023-05-10T01:58:26.987Z,9.48
2023-05-10T02:01:02.308Z,9.49
2023-05-10T02:03:34.817Z,9.46
2023-05-10T02:06:03.582Z,9.48
2023-05-10T02:08:32.363Z,9.49
2023-05-10T02:11:00.772Z,9.54
2023-05-10T02:13:29.928Z,9.55
2023-05-10T02:15:58.931Z,9.59
2023-05-10T02:18:28.929Z,9.58
2023-05-10T02:20:57.496Z,9.63
2023-05-10T02:23:26.668Z,9.68
2023-05-10T02:25:56.647Z,9.74
2023-05-10T02:28:28.397Z,9.78
2023-05-10T02:30:56.956Z,9.80
2023-05-10T02:33:28.559Z,9.82
2023-05-10T02:35:57.773Z,9.87
2023-05-10T02:38:26.577Z,9.92
2023-05-10T02:40:55.901Z,10.00
2023-05-10T02:43:24.592Z,10.12
2023-05-10T02:45:52.848Z,10.20
2023-05-10T02:48:20.761Z,10.31
2023-05-10T02:50:52.891Z,10.40
2023-05-10T02:53:26.957Z,10.49
2023-05-10T02:55:57.097Z,10.63
2023-05-10T02:58:25.382Z,10.71
2023-05-10T03:00:53.990Z,10.81
2023-05-10T03:03:24.483Z,10.85
2023-05-10T03:05:55.071Z,10.92
2023-05-10T03:08:24.611Z,10.95
2023-05-10T03:11:19.735Z,11.05
2023-05-10T03:14:12.818Z,11.09
2023-05-10T03:16:48.682Z,11.18
2023-05-10T03:19:27.366Z,11.23
2023-05-10T03:22:01.235Z,11.27
2023-05-10T03:24:29.790Z,11.42
2023-05-10T03:27:05.733Z,11.44
2023-05-10T03:29:34.435Z,11.64
2023-05-10T03:32:02.657Z,11.91
2023-05-10T03:34:32.510Z,12.22
2023-05-10T03:37:00.849Z,12.37
2023-05-10T03:39:29.098Z,12.88
2023-05-10T03:42:00.160Z,13.44
2023-05-10T03:44:28.534Z,14.25
2023-05-10T03:46:58.357Z,15.14
2023-05-10T03:49:26.603Z,16.25
2023-05-10T03:51:54.872Z,17.39
2023-05-10T03:54:22.844Z,18.67
2023-05-10T03:56:51.011Z,19.74
2023-05-10T03:59:19.536Z,20.70
2023-05-10T04:01:47.796Z,20.49
2023-05-10T04:04:16.209Z,20.90
2023-05-10T04:06:44.397Z,20.81
2023-05-10T04:09:12.447Z,21.61
2023-05-10T04:11:40.737Z,22.52
2023-05-10T04:14:09.160Z,22.25
2023-05-10T04:16:40.109Z,21.39
2023-05-10T04:19:08.190Z,21.86
2023-05-10T04:21:36.419Z,21.96
2023-05-10T04:24:08.052Z,21.36
2023-05-10T04:26:36.528Z,21.51
2023-05-10T04:29:04.516Z,21.12
2023-05-10T04:31:32.726Z,21.21
2023-05-10T04:34:00.971Z,20.21
2023-05-10T04:36:29.244Z,20.96
2023-05-10T04:38:57.615Z,21.32
2023-05-10T04:41:26.889Z,22.38
2023-05-10T04:43:55.201Z,22.29
2023-05-10T04:46:26.137Z,20.51
2023-05-10T04:48:54.197Z,19.16
2023-05-10T04:51:22.352Z,19.17
2023-05-10T04:54:01.558Z,19.72
2023-05-10T04:56:33.134Z,20.92
2023-05-10T04:59:01.481Z,23.09
2023-05-10T05:01:29.780Z,23.41
2023-05-10T05:03:58.150Z,22.79
2023-05-10T05:06:29.618Z,21.87
2023-05-10T05:08:58.051Z,20.74
2023-05-10T05:11:27.018Z,21.51
2023-05-10T05:13:55.132Z,22.57
2023-05-10T05:16:23.870Z,23.22
2023-05-10T05:18:52.363Z,22.38
2023-05-10T05:21:21.182Z,22.18
2023-05-10T05:23:49.171Z,22.17
2023-05-10T05:26:17.275Z,22.52
2023-05-10T05:28:45.626Z,21.80
2023-05-10T05:31:13.852Z,20.89
2023-05-10T05:33:42.265Z,20.34
2023-05-10T05:36:10.704Z,20.33
2023-05-10T05:38:38.808Z,20.82
2023-05-10T05:41:06.844Z,19.97
2023-05-10T05:43:36.699Z,20.26
2023-05-10T05:46:10.407Z,20.33
2023-05-10T05:48:39.035Z,20.63
2023-05-10T05:51:07.650Z,20.84
2023-05-10T05:53:35.924Z,20.57
2023-05-10T05:56:04.961Z,20.44
2023-05-10T05:58:33.091Z,20.19
2023-05-10T06:01:01.096Z,20.82
2023-05-10T06:03:29.342Z,20.73
2023-05-10T06:05:57.807Z,19.17
2023-05-10T06:08:27.267Z,18.68
2023-05-10T06:10:55.422Z,19.38
2023-05-10T06:13:23.984Z,19.36
2023-05-10T06:15:52.448Z,18.88
2023-05-10T06:18:23.845Z,19.84
2023-05-10T06:20:52.965Z,21.83
2023-05-10T06:23:21.264Z,22.56
2023-05-10T06:25:53.470Z,22.87
2023-05-10T06:28:21.937Z,22.83
2023-05-10T06:30:50.358Z,22.85
2023-05-10T06:33:18.578Z,21.97
2023-05-10T06:35:46.790Z,22.00
2023-05-10T06:38:15.067Z,21.55
2023-05-10T06:40:44.160Z,21.86
2023-05-10T06:43:12.424Z,21.74
2023-05-10T06:45:42.758Z,21.87
2023-05-10T06:48:10.814Z,20.77
2023-05-10T06:50:40.195Z,20.31
2023-05-10T06:53:09.187Z,19.88
2023-05-10T06:55:38.311Z,20.31
2023-05-10T06:58:07.646Z,19.72
2023-05-10T07:00:36.158Z,18.93
2023-05-10T07:03:04.625Z,18.07
2023-05-10T07:05:33.306Z,17.70
2023-05-10T07:08:01.706Z,17.30
2023-05-10T07:10:29.728Z,17.71
2023-05-10T07:12:57.821Z,17.98
2023-05-10T07:15:25.995Z,18.06
2023-05-10T07:17:54.121Z,17.34
2023-05-10T07:20:22.413Z,17.37
2023-05-10T07:22:50.758Z,16.90
2023-05-10T07:25:19.875Z,16.85
2023-05-10T07:27:49.778Z,17.12
2023-05-10T07:30:17.829Z,16.89
2023-05-10T07:32:47.019Z,16.85
2023-05-10T07:35:17.007Z,17.27
2023-05-10T07:37:45.190Z,17.59
2023-05-10T07:40:13.628Z,17.48
2023-05-10T07:42:49.353Z,17.26
2023-05-10T07:45:18.051Z,17.55
2023-05-10T07:47:46.093Z,17.67
2023-05-10T07:50:14.573Z,17.93
2023-05-10T07:52:43.390Z,18.14
2023-05-10T07:55:12.157Z,17.71
2023-05-10T07:57:40.921Z,17.75
2023-05-10T08:00:09.279Z,18.04
2023-05-10T08:02:37.916Z,18.43
2023-05-10T08:05:08.397Z,18.46
2023-05-10T08:07:37.682Z,18.12
2023-05-10T08:10:06.910Z,17.86
2023-05-10T08:12:35.171Z,17.97
2023-05-10T08:15:04.111Z,17.67
2023-05-10T08:17:33.952Z,17.30
2023-05-10T08:20:02.804Z,17.20
2023-05-10T08:22:32.133Z,17.30
2023-05-10T08:25:00.219Z,16.91
2023-05-10T08:27:28.643Z,17.06
2023-05-10T08:29:59.708Z,17.21
2023-05-10T08:32:28.108Z,17.14
2023-05-10T08:34:58.231Z,17.13
2023-05-10T08:37:27.412Z,17.34
2023-05-10T08:39:55.531Z,17.17
2023-05-10T08:42:24.479Z,17.24
2023-05-10T08:44:53.484Z,17.24
2023-05-10T08:47:21.953Z,17.13
2023-05-10T08:49:52.435Z,16.98
2023-05-10T08:52:21.629Z,16.67
2023-05-10T08:54:50.322Z,16.38
2023-05-10T08:57:18.732Z,16.30
2023-05-10T08:59:48.086Z,16.24
2023-05-10T09:02:18.581Z,16.43
2023-05-10T09:04:47.134Z,16.48
2023-05-10T09:07:15.737Z,16.68
2023-05-10T09:09:45.000Z,16.65
2023-05-10T09:12:14.009Z,16.84
2023-05-10T09:14:46.393Z,16.95
2023-05-10T09:17:14.786Z,16.94
2023-05-10T09:19:42.903Z,17.11
2023-05-10T09:22:11.774Z,17.53
2023-05-10T09:24:44.067Z,17.69
2023-05-10T09:27:12.842Z,17.64
2023-05-10T09:29:43.860Z,17.63
2023-05-10T09:32:13.774Z,17.71
2023-05-10T09:34:42.613Z,17.36
2023-05-10T09:37:10.989Z,17.11
2023-05-10T09:39:39.420Z,16.78
2023-05-10T09:42:10.068Z,16.60
2023-05-10T09:44:39.790Z,16.63
2023-05-10T09:47:08.656Z,16.64
2023-05-10T09:49:37.137Z,16.55
2023-05-10T09:52:08.950Z,16.51
2023-05-10T09:54:38.686Z,16.31
2023-05-10T09:57:07.998Z,16.25
2023-05-10T09:59:36.818Z,15.97
2023-05-10T10:02:05.218Z,15.93
2023-05-10T10:04:34.085Z,15.64
2023-05-10T10:07:05.003Z,15.60
2023-05-10T10:09:34.404Z,15.50
2023-05-10T10:12:06.180Z,15.55
2023-05-10T10:14:35.881Z,15.84
2023-05-10T10:17:08.335Z,16.29
2023-05-10T10:19:38.178Z,16.72
2023-05-10T10:22:07.574Z,17.09
2023-05-10T10:24:35.705Z,17.03
2023-05-10T10:27:31.657Z,16.59
2023-05-10T10:30:23.991Z,16.04
2023-05-10T10:33:10.436Z,16.02
2023-05-10T10:35:48.888Z,15.91
2023-05-10T10:38:19.588Z,15.78
2023-05-10T10:40:49.498Z,15.95
2023-05-10T10:43:28.411Z,16.52
2023-05-10T10:46:21.814Z,17.20
2023-05-10T10:48:52.900Z,17.54
2023-05-10T10:51:21.329Z,18.02
2023-05-10T10:53:50.439Z,18.33
2023-05-10T10:56:24.953Z,18.66
2023-05-10T10:58:54.952Z,18.90
2023-05-10T11:01:23.505Z,19.09
2023-05-10T11:04:00.798Z,18.89
2023-05-10T11:06:39.675Z,19.04
2023-05-10T11:09:12.867Z,19.01
2023-05-10T11:11:53.445Z,19.16
2023-05-10T11:14:23.891Z,19.23
2023-05-10T11:16:52.296Z,19.28
2023-05-10T11:19:23.725Z,19.12
2023-05-10T11:22:14.456Z,19.08
2023-05-10T11:24:57.946Z,19.43
2023-05-10T11:27:26.458Z,19.14
2023-05-10T11:29:55.010Z,18.69
2023-05-10T11:32:23.888Z,18.37
2023-05-10T11:34:53.334Z,17.59
2023-05-10T11:37:21.824Z,16.75
2023-05-10T11:39:49.919Z,16.18
2023-05-10T11:42:18.534Z,15.61
2023-05-10T11:44:47.769Z,15.44
2023-05-10T11:47:16.120Z,15.20
2023-05-10T11:49:48.038Z,15.01
2023-05-10T11:52:16.292Z,14.75
2023-05-10T11:54:54.574Z,14.44
2023-05-10T11:57:28.054Z,14.00
2023-05-10T11:59:57.630Z,14.02
2023-05-10T12:02:26.545Z,14.56
2023-05-10T12:04:56.567Z,15.36
2023-05-10T12:07:24.840Z,15.99
2023-05-10T12:10:09.673Z,16.77
2023-05-10T12:12:46.142Z,17.19
2023-05-10T12:15:20.920Z,17.44
2023-05-10T12:17:49.897Z,17.92
2023-05-10T12:20:30.311Z,18.17
2023-05-10T12:23:00.789Z,18.25
2023-05-10T12:25:36.971Z,18.10
2023-05-10T12:30:55.137Z,18.09
2023-05-10T12:33:23.750Z,17.99
2023-05-10T12:35:54.027Z,17.66
2023-05-10T12:38:40.392Z,17.12
2023-05-10T12:41:10.291Z,16.67
2023-05-10T12:43:40.098Z,16.21
2023-05-10T12:46:17.474Z,15.76
2023-05-10T12:48:47.488Z,14.98
2023-05-10T12:51:18.733Z,14.73
2023-05-10T12:53:49.751Z,14.30
2023-05-10T12:56:20.252Z,14.09
2023-05-10T12:58:49.329Z,13.72
2023-05-10T13:01:17.960Z,13.69
2023-05-10T13:03:46.158Z,13.75
2023-05-10T13:06:15.299Z,13.86
2023-05-10T13:08:43.617Z,13.73
2023-05-10T13:11:11.944Z,13.85
2023-05-10T13:13:39.970Z,13.90
2023-05-10T13:16:08.786Z,13.98
2023-05-10T13:18:37.823Z,14.20
2023-05-10T13:21:06.785Z,14.22
2023-05-10T13:24:01.709Z,14.51
2023-05-10T13:26:30.266Z,14.70
2023-05-10T13:28:58.287Z,14.88
2023-05-10T13:31:26.511Z,14.98
2023-05-10T13:33:54.853Z,15.20
2023-05-10T13:36:24.103Z,15.42
2023-05-10T13:38:52.061Z,15.74
2023-05-10T13:41:20.334Z,15.92
2023-05-10T13:43:50.282Z,16.28
2023-05-10T13:46:18.720Z,16.63
2023-05-10T13:48:47.728Z,16.99
2023-05-10T13:51:16.297Z,16.98
2023-05-10T13:53:44.656Z,17.28
2023-05-10T13:56:12.851Z,17.42
2023-05-10T13:58:41.530Z,17.70
2023-05-10T14:01:09.731Z,17.94
2023-05-10T14:03:38.357Z,17.89
2023-05-10T14:06:06.379Z,17.57
2023-05-10T14:08:36.769Z,17.39
2023-05-10T14:11:05.151Z,17.42
2023-05-10T14:13:33.215Z,17.41
2023-05-10T14:16:01.947Z,17.38
2023-05-10T14:18:30.570Z,17.56
2023-05-10T14:20:58.979Z,17.49
2023-05-10T14:23:27.791Z,17.09
2023-05-10T14:25:56.737Z,16.51
2023-05-10T14:28:26.092Z,16.66
2023-05-10T14:30:54.356Z,16.51
2023-05-10T14:33:22.368Z,16.33
2023-05-10T14:35:50.936Z,16.37
2023-05-10T14:38:19.236Z,16.36
2023-05-10T14:40:47.628Z,16.19
2023-05-10T14:43:15.607Z,16.10
2023-05-10T14:45:44.505Z,16.03
2023-05-10T14:48:16.601Z,15.93
2023-05-10T14:50:45.981Z,15.83
2023-05-10T14:53:14.360Z,15.91
2023-05-10T14:55:42.393Z,16.04
2023-05-10T14:58:10.391Z,16.02
2023-05-10T15:00:39.172Z,16.06
2023-05-10T15:03:08.058Z,16.12
2023-05-10T15:05:39.272Z,16.07
2023-05-10T15:08:07.363Z,16.09
2023-05-10T15:10:36.596Z,15.90
2023-05-10T15:13:05.687Z,15.68
2023-05-10T15:15:33.757Z,15.54
2023-05-10T15:18:02.075Z,15.38
2023-05-10T15:20:30.453Z,15.35
2023-05-10T15:22:58.788Z,15.32
2023-05-10T15:25:27.260Z,15.29
2023-05-10T15:27:55.728Z,15.28
2023-05-10T15:30:23.904Z,15.25
2023-05-10T15:32:52.062Z,15.18
2023-05-10T15:35:20.969Z,15.05
2023-05-10T15:37:50.876Z,15.01
2023-05-10T15:40:18.873Z,14.97
2023-05-10T15:42:46.812Z,14.92
2023-05-10T15:45:14.878Z,14.88
2023-05-10T15:47:43.268Z,14.85
2023-05-10T15:50:12.546Z,14.76
2023-05-10T15:52:40.744Z,14.68
2023-05-10T15:55:13.400Z,14.55
2023-05-10T15:57:42.818Z,14.47
2023-05-10T16:00:14.179Z,14.47
2023-05-10T16:02:42.939Z,14.40
2023-05-10T16:05:11.349Z,14.38
2023-05-10T16:07:42.376Z,14.36
2023-05-10T16:10:11.693Z,14.30
2023-05-10T16:12:40.324Z,14.25
2023-05-10T16:15:09.716Z,14.20
2023-05-10T16:17:38.339Z,14.14
2023-05-10T16:20:07.303Z,14.11
2023-05-10T16:22:36.156Z,14.09
2023-05-10T16:25:04.646Z,14.15
2023-05-10T16:27:33.889Z,14.21
2023-05-10T16:30:02.267Z,14.16
2023-05-10T16:32:31.049Z,14.08
2023-05-10T16:35:00.550Z,14.04
2023-05-10T16:37:29.164Z,13.93
2023-05-10T16:39:57.836Z,13.93
2023-05-10T16:42:26.504Z,13.87
2023-05-10T16:44:55.803Z,13.80
2023-05-10T16:47:27.037Z,13.70
2023-05-10T16:49:55.770Z,13.67
2023-05-10T16:52:24.303Z,13.59
2023-05-10T16:54:52.974Z,13.53
2023-05-10T16:57:21.260Z,13.44
2023-05-10T16:59:58.476Z,13.37
2023-05-10T17:02:27.684Z,13.29
2023-05-10T17:04:59.182Z,13.21
2023-05-10T17:07:29.715Z,13.16
2023-05-10T17:09:59.429Z,13.12
2023-05-10T17:12:27.663Z,13.05
2023-05-10T17:14:56.075Z,13.01
2023-05-10T17:17:24.389Z,12.93
2023-05-10T17:19:52.478Z,12.84
2023-05-10T17:22:21.160Z,12.78
2023-05-10T17:24:49.263Z,12.71
2023-05-10T17:27:20.071Z,12.66
2023-05-10T17:29:48.291Z,12.61
2023-05-10T17:32:19.322Z,12.60
2023-05-10T17:34:52.188Z,12.56
2023-05-10T17:37:20.611Z,12.46
2023-05-10T17:39:48.902Z,12.42
2023-05-10T17:42:19.341Z,12.34
2023-05-10T17:44:47.469Z,12.28
2023-05-10T17:47:15.400Z,12.20
2023-05-10T17:49:44.125Z,12.15
2023-05-10T17:52:12.558Z,12.08
2023-05-10T17:54:40.714Z,12.02
2023-05-10T17:57:08.759Z,11.94
2023-05-10T17:59:37.156Z,11.87
2023-05-10T18:02:05.390Z,11.82
2023-05-10T18:04:33.782Z,11.71
2023-05-10T18:07:06.644Z,11.65
2023-05-10T18:09:34.975Z,11.61
2023-05-10T18:12:04.064Z,11.56
2023-05-10T18:14:40.452Z,11.48
2023-05-10T18:17:10.348Z,11.42
2023-05-10T18:19:39.050Z,11.37
2023-05-10T18:22:10.474Z,11.34
2023-05-10T18:24:40.177Z,11.32
2023-05-10T18:27:09.570Z,11.26
2023-05-10T18:29:37.851Z,11.19
2023-05-10T18:32:07.172Z,11.15
2023-05-10T18:34:35.856Z,11.14
2023-05-10T18:37:08.031Z,11.13
2023-05-10T18:39:37.942Z,11.12
2023-05-10T18:42:06.302Z,11.10
2023-05-10T18:44:35.273Z,11.07
2023-05-10T18:47:03.860Z,11.04
2023-05-10T18:49:32.465Z,11.03
2023-05-10T18:52:00.496Z,10.98
2023-05-10T18:54:29.419Z,10.99
2023-05-10T18:56:59.015Z,10.97
2023-05-10T18:59:31.460Z,10.96
2023-05-10T19:01:59.483Z,10.95
2023-05-10T19:04:27.719Z,10.91
2023-05-10T19:06:56.383Z,10.93
2023-05-10T19:09:28.214Z,10.93
2023-05-10T19:11:56.395Z,10.90
2023-05-10T19:14:25.727Z,10.90
2023-05-10T19:16:54.784Z,10.86
2023-05-10T19:19:23.281Z,10.85
2023-05-10T19:21:51.508Z,10.84
2023-05-10T19:24:23.816Z,10.83
2023-05-10T19:26:52.676Z,10.82
2023-05-10T19:29:23.670Z,10.83
2023-05-10T19:31:52.905Z,10.84
2023-05-10T19:34:21.267Z,10.86
2023-05-10T19:36:49.368Z,10.91
2023-05-10T19:39:17.906Z,10.92
2023-05-10T19:41:48.128Z,10.94
2023-05-10T19:44:16.429Z,10.93
2023-05-10T19:46:44.729Z,10.88
2023-05-10T19:49:12.877Z,10.87
2023-05-10T19:51:41.608Z,10.85
2023-05-10T19:54:10.454Z,10.86
2023-05-10T19:56:38.665Z,10.89
2023-05-10T19:59:08.276Z,10.91
2023-05-10T20:01:36.781Z,10.84
2023-05-10T20:04:05.475Z,10.82
2023-05-10T20:06:34.099Z,10.83
2023-05-10T20:09:02.594Z,10.81
2023-05-10T20:11:30.587Z,10.72
2023-05-10T20:13:59.167Z,10.67
2023-05-10T20:16:27.578Z,10.63
2023-05-10T20:18:56.282Z,10.61
2023-05-10T20:21:26.826Z,10.55
2023-05-10T20:23:57.151Z,10.54
2023-05-10T20:26:25.290Z,10.53
2023-05-10T20:28:53.752Z,10.45
2023-05-10T20:31:21.935Z,10.39
2023-05-10T20:33:49.971Z,10.31
2023-05-10T20:36:18.083Z,10.28
2023-05-10T20:38:46.385Z,10.34
2023-05-10T20:41:14.702Z,10.36
2023-05-10T20:43:43.151Z,10.32
2023-05-10T20:46:11.578Z,10.23
2023-05-10T20:48:39.748Z,10.12
2023-05-10T20:51:07.952Z,10.04
2023-05-10T20:53:36.734Z,10.01
2023-05-10T20:56:05.100Z,10.03
2023-05-10T20:58:34.098Z,10.02
2023-05-10T21:01:03.313Z,9.98
2023-05-10T21:03:31.583Z,9.95
2023-05-10T21:05:59.935Z,9.96
2023-05-10T21:08:29.082Z,10.02
2023-05-10T21:10:57.824Z,10.00
2023-05-10T21:13:30.323Z,10.00
2023-05-10T21:15:58.926Z,9.93
2023-05-10T21:18:28.279Z,9.92
2023-05-10T21:20:56.606Z,9.94
2023-05-10T21:23:27.352Z,9.95
2023-05-10T21:25:56.212Z,9.97
2023-05-10T21:28:25.023Z,9.97
2023-05-10T21:30:53.322Z,9.93
2023-05-10T21:33:21.501Z,9.92
2023-05-10T21:35:49.735Z,9.91
2023-05-10T21:38:17.718Z,9.91
2023-05-10T21:40:45.642Z,9.96
2023-05-10T21:43:13.972Z,9.98
2023-05-10T21:45:42.473Z,9.96
2023-05-10T21:48:10.550Z,9.96
2023-05-10T21:50:38.532Z,9.93
2023-05-10T21:53:06.731Z,9.89
2023-05-10T21:55:37.538Z,9.96
2023-05-10T21:58:06.629Z,10.07
2023-05-10T22:00:36.278Z,10.11
2023-05-10T22:03:06.947Z,10.14
2023-05-10T22:05:35.215Z,10.17
2023-05-10T22:08:03.624Z,10.13
2023-05-10T22:10:32.134Z,10.08
2023-05-10T22:13:02.583Z,10.00
2023-05-10T22:15:36.325Z,9.90
2023-05-10T22:18:05.775Z,9.84
2023-05-10T22:20:34.159Z,9.75
2023-05-10T22:23:02.429Z,9.73
2023-05-10T22:25:31.074Z,9.76
2023-05-10T22:27:59.522Z,9.78
2023-05-10T22:30:32.799Z,9.78
2023-05-10T22:33:01.150Z,9.79
2023-05-10T22:35:29.327Z,9.80
2023-05-10T22:37:57.870Z,9.78
2023-05-10T22:40:25.775Z,9.72
2023-05-10T22:42:56.953Z,9.67
2023-05-10T22:45:24.848Z,9.66
2023-05-10T22:47:53.358Z,9.64
2023-05-10T22:50:22.315Z,9.61
2023-05-10T22:52:50.723Z,9.55
2023-05-10T22:55:18.861Z,9.54
2023-05-10T22:57:47.245Z,9.51
2023-05-10T23:00:16.265Z,9.47
2023-05-10T23:02:44.896Z,9.36
2023-05-10T23:05:19.956Z,9.27
2023-05-10T23:07:53.790Z,9.18
2023-05-10T23:10:22.021Z,9.10
2023-05-10T23:12:50.280Z,9.08
2023-05-10T23:15:18.268Z,9.08
2023-05-10T23:17:46.757Z,9.03
2023-05-10T23:20:15.001Z,8.99
2023-05-10T23:22:43.723Z,8.96
2023-05-10T23:25:14.818Z,8.93
2023-05-10T23:27:43.171Z,8.96
2023-05-10T23:30:11.784Z,9.02
2023-05-10T23:32:39.809Z,9.10
2023-05-10T23:35:08.400Z,9.19
2023-05-10T23:37:37.287Z,9.24
2023-05-10T23:40:08.127Z,9.29
2023-05-10T23:42:36.697Z,9.25
2023-05-10T23:45:05.042Z,9.27
2023-05-10T23:47:34.393Z,9.16
2023-05-10T23:50:02.578Z,9.11
2023-05-10T23:52:31.465Z,9.06
2023-05-10T23:55:02.259Z,9.07
2023-05-10T23:57:30.870Z,8.97
2023-05-10T23:59:59.300Z,8.95
